Pigeon, Indiana
Current Conditions -  °F | °C
As of 9:55 AM on Saturday 20 Dec 2014 (Local Time) from KHNB Reporting Station
Overcast Overcast  
Wind Chill: 32°   Ceiling: 5500
Heat Index: 32°   Visibility: 9mi
Dew Point: 25°   Wind: 3mph
Humidity: 75%   Direction: 60°ENE
Pressure: 30.32"   Gusts: NA
Location:  38.17°N, 87.0282°W
Report Text: KHNB 201555Z AUTO 06003KT 9SM OVC055 00/M04 A3032 RMK AO1
Loading
Personal Weather Stations






























Interactive Weather Map New forecast layout! Learn more

10-Day Weather Forecast

Advertisements
Track Severe Weather on mobile